createdAt,value
2018-12-09T00:00:41.252Z,15.89
2018-12-09T00:02:12.733Z,15.75
2018-12-09T00:03:44.290Z,15.74
2018-12-09T00:05:15.862Z,15.69
2018-12-09T00:06:47.437Z,15.86
2018-12-09T00:08:19.002Z,15.82
2018-12-09T00:09:50.604Z,15.78
2018-12-09T00:11:22.137Z,15.84
2018-12-09T00:12:53.709Z,15.86
2018-12-09T00:14:25.276Z,15.89
2018-12-09T00:15:56.846Z,15.86
2018-12-09T00:17:28.415Z,15.86
2018-12-09T00:19:00.136Z,15.83
2018-12-09T00:20:31.557Z,15.71
2018-12-09T00:22:03.123Z,15.78
2018-12-09T00:23:34.693Z,15.72
2018-12-09T00:25:06.269Z,15.69
2018-12-09T00:26:37.831Z,15.62
2018-12-09T00:28:09.452Z,15.69
2018-12-09T00:29:40.970Z,15.71
2018-12-09T00:31:12.539Z,15.69
2018-12-09T00:32:44.112Z,15.59
2018-12-09T00:34:15.681Z,15.50
2018-12-09T00:35:47.251Z,15.68
2018-12-09T00:37:18.917Z,15.68
2018-12-09T00:38:50.388Z,15.68
2018-12-09T00:40:21.956Z,15.69
2018-12-09T00:41:53.526Z,15.69
2018-12-09T00:43:25.094Z,15.69
2018-12-09T00:44:56.664Z,15.75
2018-12-09T00:46:28.233Z,15.62
2018-12-09T00:47:59.803Z,15.78
2018-12-09T00:49:31.372Z,15.74
2018-12-09T00:51:02.942Z,15.69
2018-12-09T00:52:34.511Z,15.67
2018-12-09T00:54:06.079Z,15.50
2018-12-09T00:55:37.750Z,15.54
2018-12-09T00:57:09.221Z,15.46
2018-12-09T00:58:40.790Z,15.44
2018-12-09T01:00:12.362Z,15.54
2018-12-09T01:01:43.927Z,15.60
2018-12-09T01:03:15.499Z,15.64
2018-12-09T01:04:47.067Z,15.57
2018-12-09T01:06:18.635Z,15.56
2018-12-09T01:07:50.207Z,15.67
2018-12-09T01:09:21.773Z,15.64
2018-12-09T01:10:53.343Z,15.67
2018-12-09T01:12:24.912Z,15.64
2018-12-09T01:13:56.581Z,15.56
2018-12-09T01:15:28.051Z,15.60
2018-12-09T01:16:59.621Z,15.65
2018-12-09T01:18:31.190Z,15.56
2018-12-09T01:20:02.760Z,15.68
2018-12-09T01:21:34.328Z,15.64
2018-12-09T01:23:05.897Z,15.60
2018-12-09T01:24:37.467Z,15.60
2018-12-09T01:26:09.036Z,15.64
2018-12-09T01:27:40.605Z,15.64
2018-12-09T01:29:12.175Z,15.59
2018-12-09T01:30:43.745Z,15.60
2018-12-09T01:32:15.414Z,15.56
2018-12-09T01:33:46.884Z,15.65
2018-12-09T01:35:18.452Z,15.62
2018-12-09T01:36:50.021Z,15.67
2018-12-09T01:38:21.591Z,15.69
2018-12-09T01:39:53.160Z,15.72
2018-12-09T01:41:24.729Z,15.75
2018-12-09T01:42:56.300Z,15.72
2018-12-09T01:44:27.867Z,15.71
2018-12-09T01:45:59.437Z,15.72
2018-12-09T01:47:31.007Z,15.72
2018-12-09T01:49:02.584Z,15.68
2018-12-09T01:50:34.246Z,15.72
2018-12-09T01:52:05.715Z,15.69
2018-12-09T01:53:37.285Z,15.62
2018-12-09T01:55:08.855Z,15.57
2018-12-09T01:56:40.424Z,15.62
2018-12-09T01:58:11.993Z,15.59
2018-12-09T01:59:43.570Z,15.62
2018-12-09T02:01:15.132Z,15.64
2018-12-09T02:02:46.702Z,15.64
2018-12-09T02:04:18.271Z,15.60
2018-12-09T02:05:49.841Z,15.67
2018-12-09T02:07:21.409Z,15.68
2018-12-09T02:08:53.080Z,15.74
2018-12-09T02:10:24.548Z,15.68
2018-12-09T02:11:56.120Z,15.62
2018-12-09T02:13:27.687Z,15.74
2018-12-09T02:14:59.258Z,15.74
2018-12-09T02:16:30.826Z,15.69
2018-12-09T02:18:02.398Z,15.74
2018-12-09T02:19:33.964Z,15.71
2018-12-09T02:21:05.534Z,15.80
2018-12-09T02:22:37.104Z,15.67
2018-12-09T02:24:08.673Z,15.68
2018-12-09T02:25:40.243Z,15.72
2018-12-09T02:27:11.912Z,15.68
2018-12-09T02:28:43.382Z,15.72
2018-12-09T02:30:14.952Z,15.75
2018-12-09T02:31:46.527Z,15.74
2018-12-09T02:33:18.090Z,15.75
2018-12-09T02:34:49.660Z,15.72
2018-12-09T02:36:21.230Z,15.74
2018-12-09T02:37:52.800Z,15.69
2018-12-09T02:39:24.368Z,15.74
2018-12-09T02:40:55.940Z,15.83
2018-12-09T02:42:27.509Z,15.76
2018-12-09T02:43:59.079Z,15.74
2018-12-09T02:45:31.197Z,15.75
2018-12-09T02:47:02.216Z,15.68
2018-12-09T02:48:33.786Z,15.68
2018-12-09T02:50:05.360Z,15.60
2018-12-09T02:51:36.923Z,15.62
2018-12-09T02:53:08.493Z,15.50
2018-12-09T02:54:40.063Z,15.51
2018-12-09T02:56:11.632Z,15.50
2018-12-09T02:57:43.202Z,15.47
2018-12-09T02:59:14.770Z,15.50
2018-12-09T03:00:46.339Z,15.53
2018-12-09T03:02:17.910Z,15.49
2018-12-09T03:03:49.579Z,15.51
2018-12-09T03:05:21.148Z,15.51
2018-12-09T03:06:52.691Z,15.50
2018-12-09T03:08:24.188Z,15.53
2018-12-09T03:09:55.755Z,15.47
2018-12-09T03:11:27.325Z,15.51
2018-12-09T03:12:58.893Z,15.47
2018-12-09T03:14:30.462Z,15.57
2018-12-09T03:16:02.032Z,15.54
2018-12-09T03:17:33.612Z,15.62
2018-12-09T03:19:05.170Z,15.56
2018-12-09T03:20:36.740Z,15.49
2018-12-09T03:22:08.407Z,15.44
2018-12-09T03:23:39.876Z,15.41
2018-12-09T03:25:11.446Z,15.39
2018-12-09T03:26:43.016Z,15.47
2018-12-09T03:28:14.584Z,15.44
2018-12-09T03:29:46.154Z,15.32
2018-12-09T03:31:17.724Z,15.27
2018-12-09T03:32:49.297Z,15.35
2018-12-09T03:34:20.860Z,15.32
2018-12-09T03:35:52.431Z,15.41
2018-12-09T03:37:23.999Z,15.32
2018-12-09T03:38:55.567Z,15.31
2018-12-09T03:40:27.246Z,15.31
2018-12-09T03:41:58.706Z,15.14
2018-12-09T03:43:30.276Z,15.20
2018-12-09T03:45:01.843Z,15.09
2018-12-09T03:46:33.413Z,15.14
2018-12-09T03:48:04.982Z,15.01
2018-12-09T03:49:36.552Z,15.21
2018-12-09T03:51:08.132Z,15.25
2018-12-09T03:52:39.691Z,15.13
2018-12-09T03:54:11.258Z,15.20
2018-12-09T03:55:42.826Z,15.09
2018-12-09T03:57:14.396Z,15.01
2018-12-09T03:58:46.265Z,15.11
2018-12-09T04:00:17.533Z,15.10
2018-12-09T04:01:49.105Z,15.13
2018-12-09T04:03:20.685Z,15.07
2018-12-09T04:04:52.241Z,14.99
2018-12-09T04:06:23.811Z,15.06
2018-12-09T04:07:55.378Z,15.06
2018-12-09T04:09:26.946Z,15.03
2018-12-09T04:10:58.514Z,15.09
2018-12-09T04:12:30.083Z,14.99
2018-12-09T04:14:01.652Z,15.06
2018-12-09T04:15:33.221Z,15.02
2018-12-09T04:17:04.890Z,14.99
2018-12-09T04:18:36.367Z,14.99
2018-12-09T04:20:07.935Z,14.96
2018-12-09T04:21:39.496Z,15.01
2018-12-09T04:23:11.064Z,15.06
2018-12-09T04:24:42.633Z,15.07
2018-12-09T04:26:14.202Z,15.01
2018-12-09T04:27:45.773Z,15.07
2018-12-09T04:29:17.340Z,15.02
2018-12-09T04:30:48.908Z,15.01
2018-12-09T04:32:20.477Z,14.98
2018-12-09T04:33:52.045Z,14.94
2018-12-09T04:35:23.714Z,15.06
2018-12-09T04:36:55.184Z,14.96
2018-12-09T04:38:26.755Z,14.95
2018-12-09T04:39:58.320Z,14.89
2018-12-09T04:41:29.889Z,14.95
2018-12-09T04:43:01.458Z,14.96
2018-12-09T04:44:33.026Z,14.81
2018-12-09T04:46:04.595Z,14.77
2018-12-09T04:47:36.164Z,14.81
2018-12-09T04:49:07.732Z,14.81
2018-12-09T04:50:39.303Z,14.77
2018-12-09T04:52:10.871Z,14.73
2018-12-09T04:53:42.538Z,14.84
2018-12-09T04:55:14.009Z,14.86
2018-12-09T04:56:45.580Z,14.75
2018-12-09T04:58:17.144Z,14.83
2018-12-09T04:59:48.714Z,14.89
2018-12-09T05:01:20.282Z,14.98
2018-12-09T05:02:51.851Z,14.91
2018-12-09T05:04:23.419Z,14.86
2018-12-09T05:05:54.988Z,14.80
2018-12-09T05:07:26.556Z,14.81
2018-12-09T05:08:58.125Z,14.73
2018-12-09T05:10:29.695Z,14.78
2018-12-09T05:12:01.365Z,14.84
2018-12-09T05:13:32.837Z,14.88
2018-12-09T05:15:04.400Z,14.89
2018-12-09T05:16:35.969Z,14.75
2018-12-09T05:18:07.537Z,14.88
2018-12-09T05:19:39.105Z,14.83
2018-12-09T05:21:10.674Z,14.69
2018-12-09T05:22:42.243Z,14.69
2018-12-09T05:24:13.811Z,14.61
2018-12-09T05:25:45.379Z,14.64
2018-12-09T05:27:16.948Z,14.57
2018-12-09T05:28:48.517Z,14.54
2018-12-09T05:30:20.185Z,14.43
2018-12-09T05:31:51.654Z,14.36
2018-12-09T05:33:23.223Z,14.28
2018-12-09T05:34:54.791Z,14.29
2018-12-09T05:36:26.360Z,14.18
2018-12-09T05:37:57.929Z,14.14
2018-12-09T05:39:29.505Z,14.17
2018-12-09T05:41:01.066Z,14.12
2018-12-09T05:42:32.634Z,14.17
2018-12-09T05:44:04.203Z,14.24
2018-12-09T05:45:35.771Z,14.14
2018-12-09T05:47:07.341Z,14.15
2018-12-09T05:48:39.009Z,14.20
2018-12-09T05:50:10.477Z,14.21
2018-12-09T05:51:42.045Z,14.10
2018-12-09T05:53:13.614Z,13.99
2018-12-09T05:54:45.185Z,13.88
2018-12-09T05:56:16.751Z,13.97
2018-12-09T05:57:48.320Z,13.92
2018-12-09T05:59:19.892Z,13.84
2018-12-09T06:00:51.457Z,13.81
2018-12-09T06:02:23.028Z,13.99
2018-12-09T06:03:54.594Z,14.07
2018-12-09T06:05:26.163Z,13.81
2018-12-09T06:06:57.831Z,13.95
2018-12-09T06:08:29.299Z,14.15
2018-12-09T06:10:00.867Z,14.18
2018-12-09T06:11:32.435Z,14.12
2018-12-09T06:13:05.888Z,14.07
2018-12-09T06:14:35.572Z,14.00
2018-12-09T06:16:07.141Z,13.91
2018-12-09T06:17:38.711Z,13.97
2018-12-09T06:19:10.277Z,14.18
2018-12-09T06:20:41.846Z,14.06
2018-12-09T06:22:13.414Z,14.17
2018-12-09T06:23:44.983Z,14.27
2018-12-09T06:25:16.652Z,14.24
2018-12-09T06:26:48.118Z,14.33
2018-12-09T06:28:19.689Z,14.24
2018-12-09T06:29:51.259Z,14.15
2018-12-09T06:31:22.827Z,14.27
2018-12-09T06:32:54.392Z,14.22
2018-12-09T06:34:25.962Z,14.25
2018-12-09T06:35:57.529Z,14.28
2018-12-09T06:37:29.098Z,14.28
2018-12-09T06:39:00.665Z,14.22
2018-12-09T06:40:32.233Z,14.18
2018-12-09T06:42:03.801Z,14.14
2018-12-09T06:43:35.470Z,14.12
2018-12-09T06:45:07.046Z,14.18
2018-12-09T06:46:38.506Z,14.21
2018-12-09T06:48:10.076Z,14.35
2018-12-09T06:49:41.643Z,14.35
2018-12-09T06:51:13.211Z,14.35
2018-12-09T06:52:44.831Z,14.33
2018-12-09T06:54:16.347Z,14.32
2018-12-09T06:55:47.916Z,14.28
2018-12-09T06:57:19.484Z,14.29
2018-12-09T06:58:51.052Z,14.22
2018-12-09T07:00:22.621Z,14.24
2018-12-09T07:01:54.289Z,14.22
2018-12-09T07:03:25.760Z,14.10
2018-12-09T07:04:57.325Z,14.17
2018-12-09T07:06:28.893Z,14.02
2018-12-09T07:08:00.462Z,14.09
2018-12-09T07:09:32.030Z,13.92
2018-12-09T07:11:03.600Z,13.91
2018-12-09T07:12:35.167Z,13.91
2018-12-09T07:14:06.734Z,13.88
2018-12-09T07:15:38.303Z,13.88
2018-12-09T07:17:09.871Z,14.12
2018-12-09T07:18:41.440Z,14.25
2018-12-09T07:20:13.108Z,14.09
2018-12-09T07:21:44.576Z,14.09
2018-12-09T07:23:16.144Z,14.17
2018-12-09T07:24:47.712Z,14.10
2018-12-09T07:26:19.280Z,14.15
2018-12-09T07:27:50.850Z,14.25
2018-12-09T07:29:22.417Z,14.02
2018-12-09T07:30:53.985Z,14.04
2018-12-09T07:32:25.553Z,13.99
2018-12-09T07:33:58.629Z,14.21
2018-12-09T07:35:28.689Z,14.12
2018-12-09T07:37:00.257Z,14.22
2018-12-09T07:38:32.029Z,14.29
2018-12-09T07:40:03.393Z,14.24
2018-12-09T07:41:34.961Z,14.20
2018-12-09T07:43:06.530Z,14.27
2018-12-09T07:44:38.098Z,14.00
2018-12-09T07:46:09.666Z,14.28
2018-12-09T07:47:41.237Z,14.18
2018-12-09T07:49:12.802Z,14.14
2018-12-09T07:50:44.370Z,14.06
2018-12-09T07:52:15.942Z,14.21
2018-12-09T07:53:47.507Z,14.04
2018-12-09T07:55:19.075Z,14.06
2018-12-09T07:56:50.744Z,14.21
2018-12-09T07:58:22.211Z,14.09
2018-12-09T07:59:53.779Z,14.20
2018-12-09T08:01:25.352Z,14.04
2018-12-09T08:02:56.915Z,14.10
2018-12-09T08:04:28.483Z,14.10
2018-12-09T08:06:00.051Z,14.09
2018-12-09T08:07:31.619Z,14.18
2018-12-09T08:09:03.188Z,14.04
2018-12-09T08:10:34.755Z,14.21
2018-12-09T08:12:06.324Z,14.12
2018-12-09T08:13:37.891Z,14.10
2018-12-09T08:15:09.559Z,14.12
2018-12-09T08:16:41.027Z,14.27
2018-12-09T08:18:12.595Z,14.15
2018-12-09T08:19:44.164Z,14.09
2018-12-09T08:21:15.731Z,14.10
2018-12-09T08:22:47.299Z,14.09
2018-12-09T08:24:18.869Z,14.22
2018-12-09T08:25:50.439Z,14.28
2018-12-09T08:27:22.004Z,14.20
2018-12-09T08:28:53.573Z,14.25
2018-12-09T08:30:25.141Z,14.20
2018-12-09T08:31:56.707Z,14.18
2018-12-09T08:33:28.376Z,14.29
2018-12-09T08:34:59.844Z,14.40
2018-12-09T08:36:31.616Z,14.62
2018-12-09T08:38:03.010Z,14.51
2018-12-09T08:39:34.549Z,14.57
2018-12-09T08:41:06.117Z,14.47
2018-12-09T08:42:37.685Z,14.68
2018-12-09T08:44:09.254Z,14.99
2018-12-09T08:45:40.822Z,15.23
2018-12-09T08:47:12.392Z,15.34
2018-12-09T08:48:43.960Z,15.50
2018-12-09T08:50:15.528Z,15.64
2018-12-09T08:51:47.198Z,15.57
2018-12-09T08:53:18.667Z,15.53
2018-12-09T08:54:50.237Z,15.75
2018-12-09T08:56:21.806Z,15.57
2018-12-09T08:57:53.381Z,15.93
2018-12-09T08:59:24.959Z,16.02
2018-12-09T09:00:56.514Z,15.92
2018-12-09T09:02:28.085Z,16.11
2018-12-09T09:03:59.690Z,16.33
2018-12-09T09:05:31.225Z,16.88
2018-12-09T09:07:02.795Z,16.60
2018-12-09T09:08:34.365Z,16.28
2018-12-09T09:10:06.035Z,16.41
2018-12-09T09:13:09.076Z,16.35
2018-12-09T09:14:40.646Z,16.46
2018-12-09T09:17:43.788Z,16.30
2018-12-09T09:19:15.358Z,16.61
2018-12-09T09:20:46.931Z,16.75
2018-12-09T09:22:18.500Z,17.19
2018-12-09T09:23:50.074Z,16.93
2018-12-09T09:25:21.642Z,16.56
2018-12-09T09:26:53.518Z,16.50
2018-12-09T09:28:24.785Z,17.03
2018-12-09T09:29:56.456Z,16.94
2018-12-09T09:31:27.929Z,16.73
2018-12-09T09:32:59.499Z,16.83
2018-12-09T09:34:31.071Z,17.43
2018-12-09T09:36:02.643Z,17.90
2018-12-09T09:37:34.213Z,17.72
2018-12-09T09:39:05.788Z,17.70
2018-12-09T09:40:37.361Z,17.81
2018-12-09T09:42:09.235Z,17.12
2018-12-09T09:43:40.507Z,17.21
2018-12-09T09:45:12.079Z,17.51
2018-12-09T09:46:43.650Z,17.96
2018-12-09T09:48:15.524Z,17.97
2018-12-09T09:49:46.793Z,17.56
2018-12-09T09:51:18.568Z,17.71
2018-12-09T09:52:49.938Z,17.63
2018-12-09T09:54:21.819Z,17.78
2018-12-09T09:58:56.958Z,18.10
2018-12-09T10:00:27.804Z,18.50
2018-12-09T10:01:59.682Z,18.69
2018-12-09T10:03:30.952Z,18.60
2018-12-09T10:05:02.524Z,17.82
2018-12-09T10:06:34.202Z,17.78
2018-12-09T10:09:37.245Z,18.62
2018-12-09T10:11:09.022Z,18.42
2018-12-09T10:12:40.393Z,17.77
2018-12-09T10:14:11.968Z,17.74
2018-12-09T10:15:43.543Z,17.55
2018-12-09T10:17:15.116Z,17.82
2018-12-09T10:18:46.690Z,17.70
2018-12-09T10:20:18.265Z,17.68
2018-12-09T10:21:49.839Z,17.79
2018-12-09T10:23:21.717Z,17.74
2018-12-09T10:24:53.087Z,17.68
2018-12-09T10:26:24.561Z,17.28
2018-12-09T10:27:56.135Z,16.49
2018-12-09T10:29:27.707Z,16.48
2018-12-09T10:30:59.281Z,16.28
2018-12-09T10:32:31.061Z,16.79
2018-12-09T10:34:02.427Z,17.01
2018-12-09T10:35:33.999Z,16.57
2018-12-09T10:37:05.571Z,16.43
2018-12-09T10:38:37.448Z,16.57
2018-12-09T10:41:40.288Z,17.21
2018-12-09T10:44:43.733Z,18.15
2018-12-09T10:46:15.005Z,17.96
2018-12-09T10:49:18.151Z,17.96
2018-12-09T10:50:49.725Z,17.96
2018-12-09T10:52:21.299Z,17.81
2018-12-09T10:53:53.076Z,18.29
2018-12-09T10:56:56.024Z,18.99
2018-12-09T10:58:27.597Z,18.90
2018-12-09T10:59:59.173Z,18.80
2018-12-09T11:01:30.750Z,18.65
2018-12-09T11:03:02.955Z,19.14
2018-12-09T11:04:33.900Z,18.48
2018-12-09T11:06:05.476Z,18.81
2018-12-09T11:09:08.630Z,18.51
2018-12-09T11:10:40.511Z,18.80
2018-12-09T11:12:11.782Z,18.75
2018-12-09T11:13:43.566Z,18.63
2018-12-09T11:15:15.243Z,19.55
2018-12-09T11:16:46.513Z,19.73
2018-12-09T11:18:18.090Z,20.39
2018-12-09T11:19:49.667Z,19.88
2018-12-09T11:21:21.548Z,19.92
2018-12-09T11:22:52.822Z,20.20
2018-12-09T11:24:24.707Z,20.33
2018-12-09T11:25:55.981Z,19.48
2018-12-09T11:27:27.557Z,19.46
2018-12-09T11:29:01.088Z,19.47
2018-12-09T11:30:30.716Z,19.65
2018-12-09T11:32:02.292Z,20.39
2018-12-09T11:33:33.871Z,20.14
2018-12-09T11:35:05.450Z,20.29
2018-12-09T11:36:37.029Z,21.24
2018-12-09T11:38:08.811Z,21.12
2018-12-09T11:39:40.692Z,19.86
2018-12-09T11:41:11.772Z,19.88
2018-12-09T11:42:43.345Z,20.18
2018-12-09T11:44:14.926Z,19.54
2018-12-09T11:45:46.505Z,19.59
2018-12-09T11:47:18.083Z,19.94
2018-12-09T11:48:49.662Z,19.91
2018-12-09T11:50:21.241Z,20.06
2018-12-09T11:51:52.825Z,19.96
2018-12-09T11:53:24.400Z,20.16
2018-12-09T11:54:55.980Z,20.55
2018-12-09T11:56:27.560Z,19.92
2018-12-09T11:57:59.240Z,21.16
2018-12-09T11:59:30.719Z,20.69
2018-12-09T12:01:02.300Z,21.01
2018-12-09T12:02:33.880Z,20.80
2018-12-09T12:04:05.461Z,21.25
2018-12-09T12:05:37.039Z,20.13
2018-12-09T12:07:09.547Z,20.95
2018-12-09T12:08:40.204Z,21.25
2018-12-09T12:10:11.781Z,21.35
2018-12-09T12:11:43.363Z,21.03
2018-12-09T12:13:14.942Z,20.87
2018-12-09T12:14:46.523Z,21.09
2018-12-09T12:16:18.209Z,21.27
2018-12-09T12:17:50.209Z,21.42
2018-12-09T12:19:21.266Z,21.92
2018-12-09T12:20:52.849Z,21.67
2018-12-09T12:22:24.429Z,21.96
2018-12-09T12:23:56.010Z,22.22
2018-12-09T12:25:27.592Z,21.44
2018-12-09T12:26:59.173Z,21.32
2018-12-09T12:28:30.755Z,21.91
2018-12-09T12:30:02.338Z,22.07
2018-12-09T12:31:33.919Z,21.88
2018-12-09T12:33:05.504Z,22.03
2018-12-09T12:36:08.765Z,22.82
2018-12-09T12:37:40.248Z,22.18
2018-12-09T12:39:11.830Z,22.24
2018-12-09T12:40:43.411Z,21.37
2018-12-09T12:42:14.993Z,21.75
2018-12-09T12:43:46.576Z,21.71
2018-12-09T12:46:50.046Z,22.20
2018-12-09T12:48:21.331Z,22.62
2018-12-09T12:49:52.906Z,22.31
2018-12-09T12:51:24.489Z,22.60
2018-12-09T12:52:56.071Z,22.22
2018-12-09T12:54:27.754Z,22.55
2018-12-09T12:55:59.237Z,22.88
2018-12-09T12:57:30.819Z,23.38
2018-12-09T12:59:02.926Z,22.18
2018-12-09T13:00:33.985Z,22.64
2018-12-09T13:02:05.568Z,23.53
2018-12-09T13:03:37.151Z,23.65
2018-12-09T13:05:09.101Z,23.69
2018-12-09T13:06:40.622Z,24.34
2018-12-09T13:08:11.901Z,24.60
2018-12-09T13:09:43.484Z,23.70
2018-12-09T13:11:15.068Z,23.25
2018-12-09T13:12:46.754Z,23.94
2018-12-09T13:14:18.237Z,23.28
2018-12-09T13:15:49.850Z,23.20
2018-12-09T13:17:21.403Z,24.27
2018-12-09T13:18:52.985Z,25.20
2018-12-09T13:20:24.570Z,25.23
2018-12-09T13:21:56.154Z,24.46
2018-12-09T13:24:59.321Z,23.47
2018-12-09T13:26:30.904Z,23.07
2018-12-09T13:28:02.490Z,23.69
2018-12-09T13:29:34.075Z,23.47
2018-12-09T13:31:05.757Z,24.58
2018-12-09T13:32:37.240Z,24.60
2018-12-09T13:34:08.832Z,24.67
2018-12-09T13:35:40.932Z,23.57
2018-12-09T13:37:12.000Z,23.36
2018-12-09T13:38:43.576Z,23.35
2018-12-09T13:40:15.160Z,23.84
2018-12-09T13:41:47.353Z,23.83
2018-12-09T13:43:18.329Z,24.08
2018-12-09T13:44:49.912Z,23.57
2018-12-09T13:46:21.511Z,23.84
2018-12-09T13:47:53.083Z,24.35
2018-12-09T13:50:56.399Z,24.40
2018-12-09T13:52:27.832Z,24.39
2018-12-09T13:53:59.416Z,24.98
2018-12-09T13:55:31.000Z,25.97
2018-12-09T13:57:02.585Z,25.90
2018-12-09T13:58:34.170Z,25.06
2018-12-09T14:00:06.059Z,25.05
2018-12-09T14:01:37.340Z,25.57
2018-12-09T14:03:08.924Z,26.07
2018-12-09T14:04:40.513Z,26.76
2018-12-09T14:06:12.095Z,25.85
2018-12-09T14:07:43.987Z,25.30
2018-12-09T14:09:15.368Z,25.42
2018-12-09T14:10:46.855Z,26.45
2018-12-09T14:12:18.439Z,26.50
2018-12-09T14:13:50.024Z,25.92
2018-12-09T14:15:21.611Z,24.96
2018-12-09T14:16:53.196Z,25.50
2018-12-09T14:18:24.782Z,25.58
2018-12-09T14:19:56.368Z,25.91
2018-12-09T14:22:59.550Z,25.10
2018-12-09T14:24:31.125Z,24.84
2018-12-09T14:26:02.711Z,24.88
2018-12-09T14:27:36.462Z,24.62
2018-12-09T14:33:40.740Z,25.20
2018-12-09T14:35:12.224Z,25.27
2018-12-09T14:36:43.810Z,26.06
2018-12-09T14:38:15.704Z,25.70
2018-12-09T14:39:46.980Z,25.52
2018-12-09T14:41:18.568Z,26.32
2018-12-09T14:42:50.355Z,26.76
2018-12-09T14:44:21.941Z,26.29
2018-12-09T14:45:53.328Z,26.60
2018-12-09T14:47:24.929Z,26.37
2018-12-09T14:48:56.500Z,25.52
2018-12-09T14:50:28.085Z,25.70
2018-12-09T14:51:59.977Z,26.21
2018-12-09T14:53:31.782Z,26.10
2018-12-09T14:55:02.851Z,26.67
2018-12-09T14:56:34.432Z,26.70
2018-12-09T14:58:06.019Z,26.73
2018-12-09T15:01:09.194Z,26.60
2018-12-09T15:02:40.780Z,27.39
2018-12-09T15:04:12.370Z,27.74
2018-12-09T15:05:43.954Z,27.63
2018-12-09T15:07:15.848Z,27.87
2018-12-09T15:08:47.130Z,26.91
2018-12-09T15:10:18.817Z,25.61
2018-12-09T15:11:50.304Z,25.18
2018-12-09T15:13:21.892Z,26.25
2018-12-09T15:14:53.683Z,27.07
2018-12-09T15:16:25.068Z,27.19
2018-12-09T15:17:56.654Z,27.93
2018-12-09T15:19:28.241Z,27.93
2018-12-09T15:21:00.577Z,27.25
2018-12-09T15:22:31.416Z,27.37
2018-12-09T15:24:03.004Z,27.44
2018-12-09T15:25:34.592Z,27.37
2018-12-09T15:27:06.180Z,27.18
2018-12-09T15:28:38.593Z,26.94
2018-12-09T15:30:09.355Z,25.73
2018-12-09T15:31:40.969Z,26.50
2018-12-09T15:33:12.530Z,27.37
2018-12-09T15:39:18.878Z,27.32
2018-12-09T15:40:50.466Z,27.10
2018-12-09T15:42:22.052Z,26.73
2018-12-09T15:43:53.841Z,27.43
2018-12-09T15:45:26.245Z,26.73
2018-12-09T15:46:56.812Z,26.29
2018-12-09T15:48:28.403Z,26.95
2018-12-09T15:51:31.573Z,26.40
2018-12-09T15:53:03.161Z,27.19
2018-12-09T15:56:06.540Z,26.33
2018-12-09T15:57:37.922Z,25.88
2018-12-09T15:59:10.034Z,26.23
2018-12-09T16:00:41.399Z,25.94
2018-12-09T16:03:44.676Z,25.90
2018-12-09T16:05:15.854Z,26.58
2018-12-09T16:09:50.613Z,27.94
2018-12-09T16:12:53.788Z,27.63
2018-12-09T16:15:57.162Z,27.18
2018-12-09T16:17:28.547Z,27.13
2018-12-09T16:19:00.133Z,26.76
2018-12-09T16:20:31.719Z,27.24
2018-12-09T16:22:03.406Z,27.51
2018-12-09T16:23:35.095Z,27.47
2018-12-09T16:25:06.484Z,27.27
2018-12-09T16:28:09.652Z,27.69
2018-12-09T16:29:41.238Z,28.04
2018-12-09T16:31:12.825Z,28.19
2018-12-09T16:32:45.338Z,27.59
2018-12-09T16:34:16.201Z,27.62
2018-12-09T16:35:47.721Z,27.32
2018-12-09T16:38:50.757Z,26.82
2018-12-09T16:40:22.444Z,27.02
2018-12-09T16:41:54.135Z,27.21
2018-12-09T16:43:25.517Z,27.41
2018-12-09T16:44:57.103Z,27.22
2018-12-09T16:48:00.275Z,27.51
2018-12-09T16:49:31.863Z,27.63
2018-12-09T16:51:03.751Z,26.95
2018-12-09T16:52:35.033Z,26.57
2018-12-09T16:55:38.304Z,27.36
2018-12-09T16:57:09.793Z,27.22
2018-12-09T16:58:41.376Z,27.62
2018-12-09T17:00:12.961Z,27.84
2018-12-09T17:01:44.550Z,28.46
2018-12-09T17:03:16.135Z,28.18
2018-12-09T17:04:47.719Z,27.44
2018-12-09T17:06:19.507Z,27.87
2018-12-09T17:07:50.894Z,27.18
2018-12-09T17:09:22.476Z,27.77
2018-12-09T17:10:54.063Z,27.97
2018-12-09T17:12:25.649Z,26.81
2018-12-09T17:13:58.062Z,27.24
2018-12-09T17:15:29.025Z,26.91
2018-12-09T17:17:00.406Z,27.40
2018-12-09T17:18:31.992Z,28.21
2018-12-09T17:20:06.423Z,28.34
2018-12-09T17:21:35.727Z,28.33
2018-12-09T17:24:38.339Z,26.77
2018-12-09T17:26:09.923Z,27.14
2018-12-09T17:27:42.421Z,27.04
2018-12-09T17:29:13.401Z,27.27
2018-12-09T17:32:16.892Z,26.02
2018-12-09T17:33:47.852Z,26.77
2018-12-09T17:35:19.437Z,27.27
2018-12-09T17:36:51.023Z,26.95
2018-12-09T17:38:22.609Z,27.19
2018-12-09T17:39:54.194Z,26.45
2018-12-09T17:41:25.780Z,24.85
2018-12-09T17:42:57.567Z,24.83
2018-12-09T17:46:00.535Z,26.28
2018-12-09T17:47:32.121Z,26.10
2018-12-09T17:52:06.975Z,24.35
2018-12-09T17:53:38.702Z,25.36
2018-12-09T17:55:10.041Z,24.98
2018-12-09T17:58:13.211Z,25.91
2018-12-09T17:59:44.793Z,25.99
2018-12-09T18:01:16.683Z,26.73
2018-12-09T18:02:47.963Z,26.09
2018-12-09T18:05:51.434Z,23.90
2018-12-09T18:07:22.714Z,24.24
2018-12-09T18:08:54.297Z,24.37
2018-12-09T18:10:25.881Z,24.65
2018-12-09T18:13:29.672Z,25.88
2018-12-09T18:15:00.635Z,25.27
2018-12-09T18:16:32.215Z,25.99
2018-12-09T18:18:03.799Z,26.39
2018-12-09T18:19:35.588Z,26.52
2018-12-09T18:21:07.075Z,26.43
2018-12-09T18:22:38.553Z,26.60
2018-12-09T18:24:10.133Z,26.63
2018-12-09T18:27:13.303Z,26.12
2018-12-09T18:28:44.884Z,26.13
2018-12-09T18:30:16.468Z,26.44
2018-12-09T18:31:48.052Z,26.77
2018-12-09T18:33:19.736Z,27.03
2018-12-09T18:34:51.223Z,26.92
2018-12-09T18:36:22.803Z,26.37
2018-12-09T18:37:54.386Z,25.94
2018-12-09T18:39:25.969Z,26.30
2018-12-09T18:40:57.553Z,26.54
2018-12-09T18:42:29.441Z,26.01
2018-12-09T18:44:00.720Z,26.73
2018-12-09T18:45:32.304Z,26.20
2018-12-09T18:47:03.894Z,25.57
2018-12-09T18:48:35.777Z,25.42
2018-12-09T18:50:07.057Z,25.72
2018-12-09T18:54:42.107Z,26.65
2018-12-09T19:00:48.138Z,25.88
2018-12-09T19:02:20.244Z,25.58
2018-12-09T19:03:51.506Z,25.70
2018-12-09T19:05:22.892Z,26.05
2018-12-09T19:06:54.470Z,25.91
2018-12-09T19:08:26.576Z,25.46
2018-12-09T19:09:57.636Z,25.20
2018-12-09T19:11:29.220Z,25.32
2018-12-09T19:13:01.104Z,25.92
2018-12-09T19:14:32.689Z,25.21
2018-12-09T19:16:03.966Z,25.52
2018-12-09T19:17:36.285Z,26.33
2018-12-09T19:19:07.131Z,25.00
2018-12-09T19:20:38.714Z,24.99
2018-12-09T19:22:10.297Z,25.94
2018-12-09T19:23:41.878Z,26.33
2018-12-09T19:25:13.462Z,26.26
2018-12-09T19:26:45.044Z,26.44
2018-12-09T19:28:16.628Z,25.97
2018-12-09T19:29:48.210Z,25.92
2018-12-09T19:31:20.618Z,25.97
2018-12-09T19:32:51.374Z,25.94
2018-12-09T19:34:23.261Z,26.44
2018-12-09T19:35:54.538Z,25.94
2018-12-09T19:37:26.119Z,26.07
2018-12-09T19:38:57.702Z,26.45
2018-12-09T19:40:29.287Z,26.47
2018-12-09T19:42:00.865Z,26.43
2018-12-09T19:45:04.030Z,26.54
2018-12-09T19:46:35.613Z,25.91
2018-12-09T19:48:07.717Z,25.95
2018-12-09T19:49:38.775Z,26.35
2018-12-09T19:51:10.660Z,26.02
2018-12-09T19:52:41.939Z,26.20
2018-12-09T19:54:13.521Z,26.73
2018-12-09T19:55:45.102Z,26.87
2018-12-09T19:57:16.684Z,26.97
2018-12-09T19:58:48.265Z,27.44
2018-12-09T20:00:19.846Z,27.43
2018-12-09T20:01:51.429Z,25.50
2018-12-09T20:03:23.214Z,24.64
2018-12-09T20:04:54.592Z,25.02
2018-12-09T20:06:26.173Z,25.46
2018-12-09T20:07:57.754Z,25.75
2018-12-09T20:09:29.437Z,25.83
2018-12-09T20:11:00.917Z,25.45
2018-12-09T20:12:32.497Z,25.62
2018-12-09T20:14:04.079Z,25.70
2018-12-09T20:15:35.659Z,25.82
2018-12-09T20:17:07.240Z,24.78
2018-12-09T20:18:38.821Z,25.00
2018-12-09T20:20:10.402Z,25.14
2018-12-09T20:21:42.186Z,24.31
2018-12-09T20:23:13.563Z,24.05
2018-12-09T20:24:45.143Z,24.68
2018-12-09T20:26:16.725Z,24.49
2018-12-09T20:29:19.983Z,25.00
2018-12-09T20:30:51.463Z,25.09
2018-12-09T20:32:23.043Z,24.46
2018-12-09T20:33:54.624Z,24.83
2018-12-09T20:35:26.406Z,24.09
2018-12-09T20:36:57.782Z,23.80
2018-12-09T20:38:29.362Z,23.43
2018-12-09T20:40:00.941Z,24.47
2018-12-09T20:41:32.520Z,24.98
2018-12-09T20:43:04.100Z,25.00
2018-12-09T20:44:35.680Z,24.80
2018-12-09T20:46:07.260Z,24.39
2018-12-09T20:49:10.822Z,24.43
2018-12-09T20:50:41.995Z,24.39
2018-12-09T20:52:13.574Z,24.12
2018-12-09T20:53:45.152Z,24.53
2018-12-09T20:55:16.731Z,23.66